Time;durP1;ratioP1;P1;durP2;ratioP2;P2;SDS_P1;SDS_P2;PMS_P1;PMS_P2;Temp;Humidity;BMP_temperature;BMP_pressure;BME280_temperature;BME280_humidity;BME280_pressure;Samples;Min_cycle;Max_cycle;Signal;HPM_P1;HPM_P2
2022/07/19 00:00:24;;;;;;;0.20;0.20;;;20.10;99.90;;;;;;5083065;28;20050;-83
2022/07/19 00:02:50;;;;;;;0.20;0.20;;;20.00;99.90;;;;;;5070540;28;20444;-83
2022/07/19 00:05:20;;;;;;;0.20;0.20;;;20.00;99.90;;;;;;5057961;28;20075;-84
2022/07/19 00:07:47;;;;;;;0.20;0.20;;;20.00;99.90;;;;;;5063999;28;20048;-83
2022/07/19 00:10:14;;;;;;;0.20;0.20;;;20.00;99.90;;;;;;5067318;28;20365;-84
2022/07/19 00:12:41;;;;;;;0.20;0.20;;;20.00;99.90;;;;;;5068055;28;20123;-84
2022/07/19 00:15:09;;;;;;;0.20;0.20;;;19.90;99.90;;;;;;5071439;28;20138;-84
2022/07/19 00:17:39;;;;;;;0.20;0.20;;;19.90;99.90;;;;;;5071432;28;20675;-83
2022/07/19 00:20:05;;;;;;;0.20;0.20;;;19.90;99.90;;;;;;5066562;28;20093;-84
2022/07/19 00:22:31;;;;;;;0.20;0.20;;;19.90;99.90;;;;;;5078701;28;20044;-85
2022/07/19 00:24:57;;;;;;;0.20;0.20;;;19.90;99.90;;;;;;5057243;28;20480;-84
2022/07/19 00:27:22;;;;;;;0.20;0.20;;;19.90;99.90;;;;;;5062235;28;20105;-85
2022/07/19 00:29:48;;;;;;;0.20;0.20;;;19.80;99.90;;;;;;5074658;28;20027;-83
2022/07/19 00:32:13;;;;;;;0.20;0.20;;;19.90;99.90;;;;;;5088165;28;20439;-85
2022/07/19 00:34:39;;;;;;;0.20;0.20;;;19.80;99.90;;;;;;5067368;28;20211;-84
2022/07/19 00:37:05;;;;;;;0.20;0.20;;;19.80;99.90;;;;;;5069411;28;20049;-83
2022/07/19 00:39:30;;;;;;;0.20;0.20;;;19.80;99.90;;;;;;5063200;28;20041;-85
2022/07/19 00:41:56;;;;;;;0.20;0.20;;;19.70;99.90;;;;;;5068033;28;20046;-85
2022/07/19 00:44:22;;;;;;;0.20;0.20;;;19.70;99.90;;;;;;5076885;28;20514;-85
2022/07/19 00:46:48;;;;;;;0.10;0.10;;;19.70;99.90;;;;;;5071091;28;20115;-85
2022/07/19 00:49:17;;;;;;;0.20;0.20;;;19.70;99.90;;;;;;5065197;28;20049;-84
2022/07/19 00:51:43;;;;;;;0.20;0.20;;;19.70;99.90;;;;;;5076189;28;20051;-84
2022/07/19 00:54:12;;;;;;;0.17;0.17;;;19.70;99.90;;;;;;5067062;28;20128;-84
2022/07/19 00:56:43;;;;;;;0.20;0.20;;;19.70;99.90;;;;;;5064466;28;20045;-84
2022/07/19 00:59:10;;;;;;;0.20;0.20;;;19.60;99.90;;;;;;5075756;28;20044;-85
2022/07/19 01:01:37;;;;;;;0.20;0.20;;;19.50;99.90;;;;;;5071755;28;20040;-84
2022/07/19 01:04:02;;;;;;;0.20;0.20;;;19.50;99.90;;;;;;5065724;28;20109;-84
2022/07/19 01:06:28;;;;;;;0.10;0.10;;;19.50;99.90;;;;;;5067325;28;20112;-84
2022/07/19 01:08:54;;;;;;;0.20;0.20;;;19.50;99.90;;;;;;5083390;28;20054;-84
2022/07/19 01:11:19;;;;;;;0.20;0.20;;;19.50;99.90;;;;;;5070583;28;20368;-84
2022/07/19 01:13:45;;;;;;;0.20;0.20;;;19.50;99.90;;;;;;5064422;28;20076;-84
2022/07/19 01:16:11;;;;;;;0.20;0.20;;;19.50;99.90;;;;;;5079870;28;20992;-84
2022/07/19 01:18:37;;;;;;;0.20;0.20;;;19.40;99.90;;;;;;5078742;28;20043;-83
2022/07/19 01:21:04;;;;;;;0.20;0.20;;;19.40;99.90;;;;;;5070987;28;20138;-84
2022/07/19 01:23:29;;;;;;;0.20;0.20;;;19.40;99.90;;;;;;5066984;28;20040;-84
2022/07/19 01:25:55;;;;;;;0.20;0.20;;;19.30;99.90;;;;;;5063299;28;20040;-84
2022/07/19 01:28:21;;;;;;;0.20;0.20;;;19.30;99.90;;;;;;5067563;28;20097;-84
2022/07/19 01:30:47;;;;;;;0.20;0.20;;;19.30;99.90;;;;;;5065571;28;20039;-84
2022/07/19 01:33:16;;;;;;;0.20;0.20;;;19.30;99.90;;;;;;5069846;28;20040;-84
2022/07/19 01:35:42;;;;;;;0.20;0.20;;;19.30;99.90;;;;;;5063437;28;20131;-84
2022/07/19 01:38:07;;;;;;;0.20;0.20;;;19.30;99.90;;;;;;5067405;28;20063;-85
2022/07/19 01:40:33;;;;;;;0.20;0.20;;;19.20;99.90;;;;;;5066606;28;20101;-84
2022/07/19 01:43:02;;;;;;;0.10;0.10;;;19.20;99.90;;;;;;5068260;28;20036;-86
2022/07/19 01:45:27;;;;;;;0.22;0.22;;;19.20;99.90;;;;;;5068640;28;20036;-85
2022/07/19 01:47:53;;;;;;;0.20;0.20;;;19.20;99.90;;;;;;5066128;28;20507;-86
2022/07/19 01:50:19;;;;;;;0.20;0.20;;;19.20;99.90;;;;;;5064708;28;20556;-85
2022/07/19 01:52:45;;;;;;;0.20;0.20;;;19.00;99.90;;;;;;5058465;28;20044;-85
2022/07/19 01:55:11;;;;;;;0.20;0.20;;;19.20;99.90;;;;;;5067112;28;20071;-85
2022/07/19 01:57:37;;;;;;;0.20;0.20;;;19.10;99.90;;;;;;5067616;28;20501;-85
2022/07/19 02:00:03;;;;;;;0.20;0.20;;;19.10;99.90;;;;;;5072003;28;20041;-84
2022/07/19 02:02:29;;;;;;;0.20;0.20;;;19.10;99.90;;;;;;5073562;28;20132;-82
2022/07/19 02:04:55;;;;;;;0.20;0.20;;;19.00;99.90;;;;;;5061855;28;20119;-85
2022/07/19 02:07:20;;;;;;;0.20;0.20;;;18.90;99.90;;;;;;5065103;28;20460;-82
2022/07/19 02:09:46;;;;;;;0.20;0.20;;;19.00;99.90;;;;;;5078345;28;20150;-83
2022/07/19 02:12:11;;;;;;;0.13;0.13;;;19.00;99.90;;;;;;5073443;28;20317;-83
2022/07/19 02:14:37;;;;;;;0.20;0.20;;;18.90;99.90;;;;;;5069991;28;20407;-84
2022/07/19 02:17:03;;;;;;;0.20;0.20;;;19.00;99.90;;;;;;5070100;28;20105;-83
2022/07/19 02:19:28;;;;;;;0.20;0.20;;;18.90;99.90;;;;;;5061539;28;20052;-84
2022/07/19 02:21:54;;;;;;;0.15;0.15;;;18.90;99.90;;;;;;5065678;28;20052;-84
2022/07/19 02:24:19;;;;;;;0.20;0.20;;;18.90;99.90;;;;;;5051560;28;20475;-83
2022/07/19 02:26:45;;;;;;;0.20;0.20;;;18.90;99.90;;;;;;5063289;28;20040;-83
2022/07/19 02:29:11;;;;;;;0.20;0.20;;;18.90;99.90;;;;;;5076225;28;20036;-83
2022/07/19 02:31:36;;;;;;;0.20;0.20;;;18.90;99.90;;;;;;5074187;28;20036;-84
2022/07/19 02:34:02;;;;;;;0.20;0.20;;;18.90;99.90;;;;;;5055944;28;20079;-84
2022/07/19 02:36:31;;;;;;;0.20;0.20;;;18.90;99.90;;;;;;5068605;28;20105;-84
2022/07/19 02:38:58;;;;;;;0.20;0.20;;;18.70;99.90;;;;;;5073671;28;20076;-84
2022/07/19 02:41:26;;;;;;;0.10;0.10;;;18.90;99.90;;;;;;5070616;28;20450;-84
2022/07/19 02:43:52;;;;;;;0.20;0.20;;;18.90;99.90;;;;;;5087645;28;20032;-84
2022/07/19 02:46:18;;;;;;;0.20;0.20;;;18.80;99.90;;;;;;5074105;28;20526;-85
2022/07/19 02:48:43;;;;;;;0.20;0.20;;;18.80;99.90;;;;;;5068535;28;20068;-83
2022/07/19 02:51:12;;;;;;;0.20;0.20;;;18.80;99.90;;;;;;5072879;28;20127;-84
2022/07/19 02:53:38;;;;;;;0.20;0.20;;;18.80;99.90;;;;;;5071244;28;20054;-84
2022/07/19 02:56:06;;;;;;;0.20;0.20;;;18.80;99.90;;;;;;5072071;28;20060;-84
2022/07/19 02:58:32;;;;;;;0.20;0.20;;;18.90;99.90;;;;;;5079126;28;20123;-83
2022/07/19 03:00:58;;;;;;;0.20;0.20;;;18.80;99.90;;;;;;5068127;28;20040;-84
2022/07/19 03:06:08;;;;;;;0.20;0.20;;;18.70;99.90;;;;;;5076242;28;20547;-84
2022/07/19 03:08:33;;;;;;;0.20;0.20;;;18.70;99.90;;;;;;5067340;28;20138;-84
2022/07/19 03:10:59;;;;;;;0.20;0.20;;;18.70;99.90;;;;;;5065404;28;20041;-84
2022/07/19 03:13:24;;;;;;;0.20;0.20;;;18.80;99.90;;;;;;5084004;28;20396;-84
2022/07/19 03:15:50;;;;;;;0.20;0.20;;;18.60;99.90;;;;;;5065422;28;20043;-84
2022/07/19 03:18:16;;;;;;;0.20;0.20;;;18.70;99.90;;;;;;5066722;28;20123;-84
2022/07/19 03:20:41;;;;;;;0.20;0.20;;;18.70;99.90;;;;;;5054334;28;20488;-84
2022/07/19 03:23:07;;;;;;;0.20;0.20;;;18.70;99.90;;;;;;5061864;28;20041;-85
2022/07/19 03:25:33;;;;;;;0.20;0.20;;;18.50;99.90;;;;;;5064078;28;20101;-84
2022/07/19 03:27:59;;;;;;;0.20;0.20;;;18.70;99.90;;;;;;5050580;28;20060;-84
2022/07/19 03:30:24;;;;;;;0.20;0.20;;;18.60;99.90;;;;;;5051341;28;20036;-84
2022/07/19 03:32:50;;;;;;;0.20;0.20;;;18.70;99.90;;;;;;5061257;28;20041;-84
2022/07/19 03:35:15;;;;;;;0.15;0.15;;;18.60;99.90;;;;;;5058966;28;20107;-84
2022/07/19 03:37:41;;;;;;;0.20;0.20;;;18.60;99.90;;;;;;5070340;28;20400;-84
2022/07/19 03:40:07;;;;;;;0.20;0.20;;;18.60;99.90;;;;;;5065095;28;20105;-83
2022/07/19 03:42:33;;;;;;;0.20;0.20;;;18.60;99.90;;;;;;5073195;28;20123;-84
2022/07/19 03:44:58;;;;;;;0.15;0.15;;;18.60;99.90;;;;;;5077766;28;20057;-83
2022/07/19 03:47:24;;;;;;;0.17;0.17;;;18.60;99.90;;;;;;5065426;28;20037;-83
2022/07/19 03:49:50;;;;;;;0.20;0.20;;;18.60;99.90;;;;;;5060491;28;20041;-84
2022/07/19 03:52:15;;;;;;;0.10;0.10;;;18.50;99.90;;;;;;5058643;28;20044;-84
2022/07/19 03:54:41;;;;;;;0.20;0.20;;;18.60;99.90;;;;;;5061458;28;20134;-83
2022/07/19 03:57:07;;;;;;;0.20;0.20;;;18.60;99.90;;;;;;5082769;28;20061;-84
2022/07/19 03:59:32;;;;;;;0.20;0.20;;;18.60;99.90;;;;;;5067754;28;20564;-83
2022/07/19 04:01:58;;;;;;;0.20;0.20;;;18.60;99.90;;;;;;5065042;28;20040;-83
2022/07/19 04:04:23;;;;;;;0.20;0.20;;;18.60;99.90;;;;;;5061391;28;20053;-84
2022/07/19 04:06:49;;;;;;;0.20;0.20;;;18.50;99.90;;;;;;5068868;28;20044;-84
2022/07/19 04:09:15;;;;;;;0.20;0.20;;;18.50;99.90;;;;;;5069006;28;20114;-84
2022/07/19 04:11:40;;;;;;;0.20;0.20;;;18.50;99.90;;;;;;5068401;28;20051;-84
2022/07/19 04:14:06;;;;;;;0.20;0.20;;;18.60;99.90;;;;;;5052198;28;20052;-84
2022/07/19 04:16:32;;;;;;;0.20;0.20;;;18.50;99.90;;;;;;5052459;28;20099;-84
2022/07/19 04:18:57;;;;;;;0.20;0.20;;;18.50;99.90;;;;;;5068947;28;20067;-84
2022/07/19 04:21:23;;;;;;;0.20;0.20;;;18.60;99.90;;;;;;5069789;28;20079;-84
2022/07/19 04:23:48;;;;;;;0.15;0.15;;;18.50;99.90;;;;;;5068583;28;20155;-84
2022/07/19 04:26:14;;;;;;;0.20;0.20;;;18.50;99.90;;;;;;5055987;28;20072;-84
2022/07/19 04:28:40;;;;;;;0.15;0.15;;;18.60;99.90;;;;;;5061659;28;20043;-85
2022/07/19 04:31:06;;;;;;;0.20;0.20;;;18.60;99.90;;;;;;5064630;28;20044;-84
2022/07/19 04:33:32;;;;;;;0.20;0.20;;;18.60;99.90;;;;;;5053768;28;20037;-85
2022/07/19 04:35:57;;;;;;;0.20;0.20;;;18.60;99.90;;;;;;5057923;28;20373;-84
2022/07/19 04:38:23;;;;;;;0.20;0.20;;;18.60;99.90;;;;;;5071845;28;20041;-83
2022/07/19 04:40:49;;;;;;;0.20;0.20;;;18.70;99.90;;;;;;5064199;28;20047;-86
2022/07/19 04:43:16;;;;;;;0.20;0.20;;;18.60;99.90;;;;;;5072954;28;20090;-86
2022/07/19 04:45:44;;;;;;;0.20;0.20;;;18.70;99.90;;;;;;5068435;28;20052;-84
2022/07/19 04:48:10;;;;;;;0.20;0.20;;;18.70;99.90;;;;;;5063897;28;20053;-87
2022/07/19 04:50:36;;;;;;;0.20;0.20;;;18.70;99.90;;;;;;5063880;28;20041;-85
2022/07/19 04:53:01;;;;;;;0.20;0.20;;;18.80;99.90;;;;;;5067963;28;20033;-86
2022/07/19 04:55:27;;;;;;;0.20;0.20;;;18.80;99.90;;;;;;5066202;28;20064;-88
2022/07/19 04:57:53;;;;;;;0.20;0.20;;;18.80;99.90;;;;;;5066591;28;20048;-86
2022/07/19 05:00:19;;;;;;;0.20;0.20;;;18.90;99.90;;;;;;5072419;28;20472;-85
2022/07/19 05:02:44;;;;;;;0.15;0.15;;;18.90;99.90;;;;;;5053515;28;20447;-85
2022/07/19 05:05:10;;;;;;;0.20;0.20;;;18.90;99.90;;;;;;5060817;28;20044;-86
2022/07/19 05:07:39;;;;;;;0.20;0.20;;;19.00;99.90;;;;;;5066815;28;20067;-86
2022/07/19 05:10:05;;;;;;;0.20;0.20;;;19.00;99.90;;;;;;5068920;28;20506;-86
2022/07/19 05:12:39;;;;;;;0.20;0.20;;;19.10;99.90;;;;;;5069437;28;20070;-85
2022/07/19 05:15:06;;;;;;;0.20;0.20;;;19.10;99.90;;;;;;5069526;28;20048;-87
2022/07/19 05:17:32;;;;;;;0.20;0.20;;;19.20;99.90;;;;;;5088710;28;20125;-87
2022/07/19 05:19:57;;;;;;;0.20;0.20;;;19.20;99.90;;;;;;5070851;28;20064;-85
2022/07/19 05:22:24;;;;;;;0.20;0.20;;;19.30;99.90;;;;;;5081495;28;20114;-86
2022/07/19 05:24:51;;;;;;;0.20;0.20;;;19.30;99.90;;;;;;5075963;28;20036;-85
2022/07/19 05:27:17;;;;;;;0.20;0.20;;;19.40;99.90;;;;;;5064967;28;20037;-86
2022/07/19 05:29:43;;;;;;;0.20;0.20;;;19.40;99.90;;;;;;5061493;28;20048;-86
2022/07/19 05:32:08;;;;;;;0.15;0.15;;;19.40;99.90;;;;;;5066105;28;20041;-81
2022/07/19 05:34:34;;;;;;;0.20;0.20;;;19.50;99.90;;;;;;5053398;28;20144;-81
2022/07/19 05:36:59;;;;;;;0.20;0.20;;;19.50;99.90;;;;;;5081551;28;20454;-81
2022/07/19 05:39:25;;;;;;;0.20;0.20;;;19.60;99.90;;;;;;5069249;28;20496;-81
2022/07/19 05:41:51;;;;;;;0.20;0.20;;;19.60;99.90;;;;;;5063856;28;20139;-81
2022/07/19 05:44:17;;;;;;;0.20;0.20;;;20.00;99.90;;;;;;5055128;28;20049;-81
2022/07/19 05:46:42;;;;;;;0.20;0.20;;;19.80;99.90;;;;;;5063129;28;20080;-81
2022/07/19 05:49:08;;;;;;;0.20;0.20;;;19.70;99.90;;;;;;5066307;28;20060;-81
2022/07/19 05:51:35;;;;;;;0.30;0.30;;;19.90;99.90;;;;;;5069676;28;20037;-81
2022/07/19 05:54:01;;;;;;;0.20;0.20;;;19.80;99.90;;;;;;5050111;28;20097;-81
2022/07/19 05:56:27;;;;;;;0.20;0.20;;;19.90;99.90;;;;;;5053584;28;20127;-81
2022/07/19 05:58:55;;;;;;;0.20;0.20;;;19.90;99.90;;;;;;5068560;28;20049;-82
2022/07/19 06:01:24;;;;;;;0.17;0.17;;;20.10;99.90;;;;;;5078909;28;20505;-82
2022/07/19 06:03:57;;;;;;;0.20;0.20;;;20.10;99.90;;;;;;5065385;28;20041;-82
2022/07/19 06:06:25;;;;;;;0.20;0.20;;;20.10;99.90;;;;;;5068209;28;20036;-81
2022/07/19 06:08:51;;;;;;;0.20;0.20;;;20.20;99.90;;;;;;5075765;28;20411;-82
2022/07/19 06:11:17;;;;;;;0.15;0.15;;;20.20;99.90;;;;;;5061950;28;20051;-83
2022/07/19 06:13:44;;;;;;;0.20;0.20;;;20.30;99.90;;;;;;5067295;28;20055;-82
2022/07/19 06:16:11;;;;;;;0.20;0.20;;;20.30;99.90;;;;;;5068305;28;20174;-82
2022/07/19 06:18:37;;;;;;;0.20;0.20;;;20.40;99.90;;;;;;5067366;28;20052;-82
2022/07/19 06:21:07;;;;;;;0.20;0.20;;;20.50;99.90;;;;;;5066829;28;20082;-81
2022/07/19 06:23:33;;;;;;;0.20;0.20;;;20.60;99.90;;;;;;5070380;28;20048;-82
2022/07/19 06:25:59;;;;;;;0.20;0.20;;;20.60;99.90;;;;;;5062477;28;20671;-81
2022/07/19 06:28:25;;;;;;;0.25;0.25;;;20.70;99.90;;;;;;5060339;28;20100;-81
2022/07/19 06:30:51;;;;;;;0.20;0.20;;;20.80;99.90;;;;;;5070048;28;20093;-82
2022/07/19 06:33:17;;;;;;;0.17;0.17;;;20.90;99.90;;;;;;5067078;28;20053;-83
2022/07/19 06:35:42;;;;;;;0.20;0.20;;;20.90;99.90;;;;;;5072722;28;20043;-83
2022/07/19 06:38:08;;;;;;;0.20;0.20;;;21.00;99.90;;;;;;5074664;28;20041;-83
2022/07/19 06:40:34;;;;;;;0.20;0.20;;;21.10;99.90;;;;;;5053789;28;20501;-83
2022/07/19 06:43:00;;;;;;;0.20;0.20;;;21.20;99.90;;;;;;5074497;28;20492;-83
2022/07/19 06:45:25;;;;;;;0.20;0.20;;;21.20;99.90;;;;;;5062199;28;20056;-81
2022/07/19 06:47:51;;;;;;;0.20;0.20;;;21.50;99.90;;;;;;5064551;28;20054;-82
2022/07/19 06:50:18;;;;;;;0.30;0.30;;;21.40;99.90;;;;;;5061670;28;20037;-83
2022/07/19 06:52:43;;;;;;;0.20;0.20;;;21.50;99.90;;;;;;5064257;28;20125;-81
2022/07/19 06:55:09;;;;;;;0.20;0.20;;;21.60;99.90;;;;;;5061567;28;20551;-81
2022/07/19 06:57:35;;;;;;;0.20;0.20;;;21.70;99.90;;;;;;5072342;28;20114;-83
2022/07/19 07:00:00;;;;;;;0.20;0.20;;;21.80;99.90;;;;;;5069351;28;20040;-83
2022/07/19 07:02:26;;;;;;;0.20;0.20;;;21.90;99.90;;;;;;5066034;28;20052;-83
2022/07/19 07:04:52;;;;;;;0.20;0.20;;;22.00;99.90;;;;;;5058820;28;20050;-83
2022/07/19 07:07:17;;;;;;;0.20;0.20;;;22.20;99.90;;;;;;5070601;28;20372;-82
2022/07/19 07:09:43;;;;;;;0.20;0.20;;;22.20;99.90;;;;;;5053123;28;20044;-80
2022/07/19 07:12:08;;;;;;;0.20;0.20;;;22.40;99.90;;;;;;5050126;28;20127;-80
2022/07/19 07:14:34;;;;;;;0.20;0.20;;;22.50;99.90;;;;;;5068499;28;20055;-81
2022/07/19 07:17:00;;;;;;;0.20;0.20;;;22.60;99.90;;;;;;5071313;28;20049;-82
2022/07/19 07:19:26;;;;;;;0.20;0.20;;;22.80;99.90;;;;;;5057128;28;20222;-80
2022/07/19 07:21:52;;;;;;;0.20;0.20;;;22.90;99.90;;;;;;5063950;28;20128;-85
2022/07/19 07:24:20;;;;;;;0.20;0.20;;;23.10;99.90;;;;;;5084596;28;20115;-79
2022/07/19 07:26:46;;;;;;;0.30;0.30;;;23.30;99.90;;;;;;5065270;28;20048;-78
2022/07/19 07:29:12;;;;;;;0.20;0.20;;;23.30;99.90;;;;;;5050005;28;20037;-80
2022/07/19 07:31:40;;;;;;;0.20;0.20;;;23.40;99.90;;;;;;5061867;28;20040;-79
2022/07/19 07:34:06;;;;;;;0.20;0.20;;;23.40;99.90;;;;;;5056885;28;20041;-80
2022/07/19 07:36:32;;;;;;;0.20;0.20;;;23.40;99.90;;;;;;5079346;28;20048;-80
2022/07/19 07:38:57;;;;;;;0.30;0.30;;;23.80;99.90;;;;;;5070005;28;20396;-80
2022/07/19 07:41:23;;;;;;;0.20;0.20;;;23.50;99.90;;;;;;5069688;28;20037;-81
2022/07/19 07:43:48;;;;;;;0.20;0.20;;;23.60;99.90;;;;;;5068796;28;20053;-81
2022/07/19 07:46:14;;;;;;;0.20;0.20;;;23.90;99.90;;;;;;5064334;28;20040;-80
2022/07/19 07:48:42;;;;;;;0.20;0.20;;;23.90;99.90;;;;;;5068683;28;20037;-81
2022/07/19 07:51:08;;;;;;;0.20;0.20;;;23.80;99.60;;;;;;5060548;28;20049;-80
2022/07/19 07:53:34;;;;;;;0.30;0.30;;;23.90;99.30;;;;;;5059768;28;20048;-80
2022/07/19 07:55:59;;;;;;;0.20;0.20;;;24.10;99.50;;;;;;5052808;28;20052;-85
2022/07/19 07:58:25;;;;;;;0.20;0.20;;;24.10;99.40;;;;;;5069045;28;20045;-81
2022/07/19 08:00:50;;;;;;;0.20;0.20;;;24.20;99.40;;;;;;5054319;28;20045;-81
2022/07/19 08:03:17;;;;;;;0.28;0.28;;;24.40;98.90;;;;;;5065965;28;20044;-81
2022/07/19 08:05:48;;;;;;;0.20;0.20;;;24.40;98.90;;;;;;5057972;28;20036;-81
2022/07/19 08:08:14;;;;;;;0.20;0.20;;;25.00;99.10;;;;;;5068883;28;20231;-81
2022/07/19 08:10:40;;;;;;;0.20;0.20;;;24.60;98.70;;;;;;5069906;28;20102;-82
2022/07/19 08:13:06;;;;;;;0.20;0.20;;;24.50;98.80;;;;;;5072945;28;20467;-82
2022/07/19 08:15:31;;;;;;;0.20;0.20;;;24.70;98.70;;;;;;5080804;28;20061;-83
2022/07/19 08:17:57;;;;;;;0.20;0.20;;;24.80;98.40;;;;;;5073078;28;20051;-83
2022/07/19 08:20:23;;;;;;;0.20;0.20;;;24.90;98.50;;;;;;5079225;28;20088;-82
2022/07/19 08:22:48;;;;;;;0.20;0.20;;;25.00;97.90;;;;;;5097625;28;20035;-83
2022/07/19 08:25:16;;;;;;;0.20;0.20;;;25.10;98.30;;;;;;5085064;28;20141;-81
2022/07/19 08:27:43;;;;;;;0.20;0.20;;;25.10;97.50;;;;;;5070727;28;20558;-82
2022/07/19 08:30:10;;;;;;;0.20;0.20;;;25.30;97.50;;;;;;5069365;28;20086;-80
2022/07/19 08:32:36;;;;;;;0.25;0.25;;;25.30;97.70;;;;;;5073043;28;20032;-80
2022/07/19 08:35:03;;;;;;;0.20;0.20;;;25.40;99.90;;;;;;5098810;28;20455;-79
2022/07/19 08:37:29;;;;;;;0.30;0.30;;;25.50;99.40;;;;;;5094194;28;20044;-81
2022/07/19 08:39:56;;;;;;;0.20;0.20;;;25.90;99.40;;;;;;5091090;28;20062;-80
2022/07/19 08:42:22;;;;;;;0.30;0.30;;;26.00;98.00;;;;;;5072938;28;20123;-81
2022/07/19 08:44:52;;;;;;;0.20;0.20;;;25.80;97.70;;;;;;5072644;28;20120;-80
2022/07/19 08:47:19;;;;;;;0.20;0.20;;;25.90;97.20;;;;;;5071776;28;20048;-81
2022/07/19 08:49:45;;;;;;;0.20;0.20;;;26.10;96.80;;;;;;5072575;28;20460;-80
2022/07/19 08:52:12;;;;;;;0.20;0.20;;;26.10;96.60;;;;;;5068810;28;20048;-80
2022/07/19 08:54:38;;;;;;;0.20;0.20;;;26.20;96.80;;;;;;5072152;28;20055;-80
2022/07/19 08:59:50;;;;;;;0.30;0.30;;;26.40;96.60;;;;;;5069818;28;20052;-80
2022/07/19 09:02:19;;;;;;;0.20;0.20;;;26.50;96.50;;;;;;5085592;28;20044;-81
2022/07/19 09:05:05;;;;;;;0.30;0.30;;;26.60;96.40;;;;;;5088003;28;20105;-80
2022/07/19 09:07:31;;;;;;;0.20;0.20;;;26.80;96.80;;;;;;5072451;28;20045;-81
2022/07/19 09:10:20;;;;;;;0.20;0.20;;;26.80;97.00;;;;;;5073638;28;20052;-81
2022/07/19 09:13:20;;;;;;;0.20;0.20;;;27.00;97.90;;;;;;5071605;28;20102;-80
2022/07/19 09:15:50;;;;;;;0.20;0.20;;;27.00;99.90;;;;;;5057628;28;20060;-80
2022/07/19 09:18:28;;;;;;;0.20;0.20;;;27.20;99.90;;;;;;5073862;28;20040;-78
2022/07/19 09:21:02;;;;;;;0.20;0.20;;;27.30;99.50;;;;;;5073001;28;20116;-79
2022/07/19 09:23:29;;;;;;;0.20;0.20;;;27.40;96.40;;;;;;5071182;28;20551;-80
2022/07/19 09:26:05;;;;;;;0.20;0.20;;;27.60;95.90;;;;;;5077495;28;20036;-79
2022/07/19 09:28:33;;;;;;;0.20;0.20;;;27.70;95.70;;;;;;5069119;28;20059;-80
2022/07/19 09:30:59;;;;;;;0.20;0.20;;;27.80;91.50;;;;;;5072308;28;20080;-83
2022/07/19 09:33:28;;;;;;;0.20;0.20;;;27.90;90.30;;;;;;5060616;28;20117;-83
2022/07/19 09:35:56;;;;;;;0.20;0.20;;;28.00;90.70;;;;;;5072663;28;20125;-82
2022/07/19 09:38:22;;;;;;;0.20;0.20;;;28.10;90.50;;;;;;5070382;28;20059;-81
2022/07/19 09:40:49;;;;;;;0.20;0.20;;;28.20;90.10;;;;;;5071987;28;20135;-82
2022/07/19 09:43:16;;;;;;;0.25;0.25;;;28.30;90.50;;;;;;5069526;28;20040;-82
2022/07/19 09:45:42;;;;;;;0.30;0.30;;;28.40;89.70;;;;;;5071883;28;20040;-82
2022/07/19 09:48:11;;;;;;;0.28;0.28;;;28.40;87.30;;;;;;5070452;28;20059;-81
2022/07/19 09:50:36;;;;;;;0.25;0.25;;;28.50;87.50;;;;;;5063662;28;20094;-82
2022/07/19 09:53:05;;;;;;;0.20;0.20;;;28.60;88.30;;;;;;5060672;28;20140;-82
2022/07/19 09:55:32;;;;;;;0.20;0.20;;;28.70;88.20;;;;;;5068319;28;20063;-81
2022/07/19 09:57:59;;;;;;;0.20;0.20;;;28.80;87.60;;;;;;5075766;28;20052;-81
2022/07/19 10:00:25;;;;;;;0.30;0.30;;;28.90;88.00;;;;;;5068778;28;20048;-82
2022/07/19 10:02:55;;;;;;;0.20;0.20;;;28.90;87.90;;;;;;5070338;28;20131;-82
2022/07/19 10:05:21;;;;;;;0.20;0.20;;;28.90;85.90;;;;;;5078266;28;20500;-81
2022/07/19 10:07:47;;;;;;;0.20;0.20;;;29.00;86.70;;;;;;5074836;28;20051;-81
2022/07/19 10:10:18;;;;;;;0.20;0.20;;;29.10;87.10;;;;;;5075059;28;20369;-80
2022/07/19 10:12:45;;;;;;;0.20;0.20;;;28.80;84.60;;;;;;5072364;28;20456;-80
2022/07/19 10:15:15;;;;;;;0.13;0.13;;;29.10;84.20;;;;;;5072863;28;20052;-81
2022/07/19 10:17:54;;;;;;;0.20;0.20;;;29.20;84.60;;;;;;5068187;28;20044;-81
2022/07/19 10:20:22;;;;;;;0.20;0.20;;;29.30;84.90;;;;;;5060229;28;20044;-80
2022/07/19 10:22:53;;;;;;;0.22;0.22;;;29.40;84.70;;;;;;5081603;28;20036;-81
2022/07/19 10:25:19;;;;;;;;;;;29.50;84.20;;;;;;5064681;28;20040;-80
2022/07/19 10:27:51;;;;;;;0.20;0.20;;;29.50;82.40;;;;;;5072769;28;19924;-79
2022/07/19 10:30:23;;;;;;;0.20;0.20;;;29.60;81.60;;;;;;5063849;28;20047;-79
2022/07/19 10:32:50;;;;;;;0.20;0.20;;;29.70;82.00;;;;;;5066590;28;20059;-79
2022/07/19 10:35:31;;;;;;;0.20;0.20;;;29.80;79.00;;;;;;5061748;28;20471;-79
2022/07/19 10:38:00;;;;;;;0.20;0.20;;;29.90;80.00;;;;;;5082746;28;20087;-79
2022/07/19 10:40:35;;;;;;;0.30;0.30;;;30.00;79.40;;;;;;5066669;28;20120;-79
2022/07/19 10:43:07;;;;;;;0.20;0.20;;;30.10;79.30;;;;;;5058748;28;20106;-79
2022/07/19 10:45:33;;;;;;;0.20;0.20;;;30.10;78.80;;;;;;5082243;28;20052;-80
2022/07/19 10:48:02;;;;;;;0.20;0.20;;;30.20;77.60;;;;;;5070642;28;20052;-80
2022/07/19 10:50:51;;;;;;;0.30;0.30;;;30.30;77.90;;;;;;5072335;28;20053;-80
2022/07/19 10:53:42;;;;;;;0.20;0.20;;;30.40;78.00;;;;;;5068248;28;20044;-80
2022/07/19 10:56:15;;;;;;;0.20;0.20;;;30.40;77.00;;;;;;5062447;28;20056;-80
2022/07/19 10:58:48;;;;;;;0.20;0.20;;;30.50;76.80;;;;;;5064979;28;20047;-81
2022/07/19 11:01:21;;;;;;;0.20;0.20;;;30.60;75.90;;;;;;5062299;28;20369;-80
2022/07/19 11:03:48;;;;;;;0.20;0.20;;;30.60;76.10;;;;;;5066916;28;20345;-80
2022/07/19 11:06:26;;;;;;;0.22;0.22;;;30.80;76.10;;;;;;5048747;28;20049;-80
2022/07/19 11:08:58;;;;;;;0.20;0.20;;;30.90;74.40;;;;;;5074084;28;20048;-81
2022/07/19 11:11:26;;;;;;;0.20;0.20;;;31.00;75.20;;;;;;5076868;28;20341;-81
2022/07/19 11:13:54;;;;;;;0.30;0.30;;;31.00;73.70;;;;;;5059400;28;20040;-81
2022/07/19 11:16:24;;;;;;;0.25;0.25;;;31.10;74.30;;;;;;5090154;28;20044;-80
2022/07/19 11:18:49;;;;;;;0.20;0.20;;;31.20;74.10;;;;;;5074985;28;20067;-80
2022/07/19 11:21:16;;;;;;;0.30;0.30;;;31.30;74.10;;;;;;5058207;28;20433;-80
2022/07/19 11:23:43;;;;;;;0.20;0.20;;;31.30;73.40;;;;;;5054410;28;20041;-80
2022/07/19 11:26:09;;;;;;;0.20;0.20;;;31.40;73.20;;;;;;5066887;28;20051;-80
2022/07/19 11:28:40;;;;;;;0.28;0.28;;;31.50;71.40;;;;;;5086413;28;20098;-80
2022/07/19 11:31:20;;;;;;;0.30;0.30;;;31.60;71.10;;;;;;5070500;28;20036;-81
2022/07/19 11:33:49;;;;;;;0.20;0.20;;;31.70;70.50;;;;;;5048148;28;20060;-80
2022/07/19 11:36:18;;;;;;;0.30;0.30;;;31.80;70.30;;;;;;5069427;28;20044;-79
2022/07/19 11:38:48;;;;;;;0.20;0.20;;;31.90;70.50;;;;;;5057939;28;20040;-80
2022/07/19 11:41:16;;;;;;;0.20;0.20;;;32.10;67.20;;;;;;5067206;28;20116;-82
2022/07/19 11:43:42;;;;;;;0.30;0.30;;;32.20;69.70;;;;;;5053040;28;20085;-80
2022/07/19 11:46:08;;;;;;;0.20;0.20;;;32.30;69.40;;;;;;5048989;28;20092;-80
2022/07/19 11:48:33;;;;;;;0.30;0.30;;;32.30;70.20;;;;;;5050685;28;20144;-80
2022/07/19 11:51:04;;;;;;;0.30;0.30;;;32.40;68.90;;;;;;5067144;28;20566;-79
2022/07/19 11:53:31;;;;;;;0.20;0.20;;;32.50;69.40;;;;;;5068220;28;20097;-80
2022/07/19 11:55:57;;;;;;;0.25;0.25;;;32.60;67.60;;;;;;5057655;28;20124;-80
2022/07/19 11:58:23;;;;;;;0.20;0.20;;;32.70;67.70;;;;;;5074652;28;20119;-80
2022/07/19 12:00:49;;;;;;;0.20;0.20;;;32.80;69.00;;;;;;5070489;28;20110;-79
2022/07/19 12:03:17;;;;;;;0.20;0.20;;;32.90;68.90;;;;;;5071776;28;20561;-79
2022/07/19 12:05:58;;;;;;;0.30;0.30;;;33.00;68.50;;;;;;5068932;28;20116;-79
2022/07/19 12:08:40;;;;;;;0.20;0.20;;;33.00;68.30;;;;;;5056208;28;20468;-80
2022/07/19 12:11:27;;;;;;;0.30;0.30;;;33.20;68.30;;;;;;5075701;28;20396;-80
2022/07/19 12:13:54;;;;;;;0.30;0.30;;;33.30;68.00;;;;;;5054439;28;20045;-81
2022/07/19 12:16:21;;;;;;;0.30;0.30;;;33.30;67.50;;;;;;5054961;28;20068;-80
2022/07/19 12:18:54;;;;;;;0.30;0.30;;;33.40;67.60;;;;;;5060336;28;20062;-80
2022/07/19 12:21:25;;;;;;;0.20;0.20;;;33.50;67.60;;;;;;5066295;28;20052;-81
2022/07/19 12:24:17;;;;;;;0.30;0.30;;;33.50;66.90;;;;;;5057242;28;20178;-79
2022/07/19 12:26:55;;;;;;;0.30;0.30;;;33.70;66.90;;;;;;5071305;28;20434;-80
2022/07/19 12:29:40;;;;;;;0.30;0.30;;;33.70;66.60;;;;;;5073545;28;20120;-80
2022/07/19 12:32:08;;;;;;;0.30;0.30;;;33.80;66.60;;;;;;5055517;28;20106;-81
2022/07/19 12:34:50;;;;;;;0.30;0.30;;;33.90;65.40;;;;;;5083984;28;20040;-80
2022/07/19 12:37:23;;;;;;;0.30;0.30;;;34.00;64.80;;;;;;5058010;28;20041;-82
2022/07/19 12:40:05;;;;;;;0.40;0.40;;;34.10;66.00;;;;;;5067882;28;20040;-80
2022/07/19 12:42:40;;;;;;;0.30;0.30;;;34.20;65.60;;;;;;5061233;28;20055;-80
2022/07/19 12:45:08;;;;;;;0.30;0.30;;;34.30;65.60;;;;;;5071171;28;20040;-80
2022/07/19 12:47:34;;;;;;;0.20;0.20;;;34.40;64.80;;;;;;5072700;28;20051;-80
2022/07/19 12:49:59;;;;;;;0.20;0.20;;;34.50;64.70;;;;;;5067129;28;20037;-80
2022/07/19 12:52:25;;;;;;;0.20;0.20;;;34.50;64.20;;;;;;5072513;28;20123;-81
2022/07/19 12:54:51;;;;;;;0.30;0.30;;;34.50;64.10;;;;;;5066385;28;20124;-81